createdAt,value
2022-12-01T00:00:55.195Z,101023.03
2022-12-01T00:03:57.768Z,101047.25
2022-12-01T00:06:59.983Z,101061.50
2022-12-01T00:10:21.477Z,101061.00
2022-12-01T00:13:23.713Z,101062.41
2022-12-01T00:16:26.326Z,101040.13
2022-12-01T00:19:28.635Z,101062.47
2022-12-01T00:22:31.939Z,101042.34
2022-12-01T00:25:34.190Z,101066.34
2022-12-01T00:28:36.673Z,101040.75
2022-12-01T00:31:40.205Z,101071.00
2022-12-01T00:34:42.768Z,101049.53
2022-12-01T00:37:45.105Z,101044.63
2022-12-01T00:40:47.635Z,101069.69
2022-12-01T00:43:50.383Z,101070.25
2022-12-01T00:46:53.104Z,101061.56
2022-12-01T00:49:55.599Z,101080.06
2022-12-01T00:52:58.068Z,101073.56
2022-12-01T00:56:00.502Z,101062.16
2022-12-01T00:59:03.089Z,101062.16
2022-12-01T01:02:07.824Z,101067.06
2022-12-01T01:05:10.519Z,101080.66
2022-12-01T01:08:15.025Z,101073.87
2022-12-01T01:11:17.900Z,101085.63
2022-12-01T01:14:21.740Z,101069.25
2022-12-01T01:17:24.255Z,101069.25
2022-12-01T01:20:26.497Z,101063.00
2022-12-01T01:23:29.448Z,101059.75
2022-12-01T01:26:32.535Z,101047.22
2022-12-01T01:29:36.047Z,101052.94
2022-12-01T01:32:38.320Z,101051.31
2022-12-01T01:35:41.332Z,101070.91
2022-12-01T01:38:44.079Z,101045.31
2022-12-01T01:41:46.640Z,101045.88
2022-12-01T01:44:53.443Z,101072.59
2022-12-01T01:47:59.482Z,101039.34
2022-12-01T01:51:02.486Z,101049.12
2022-12-01T01:54:17.072Z,101075.59
2022-12-01T01:57:28.902Z,101074.78
2022-12-01T02:00:31.544Z,101065.25
2022-12-01T02:03:35.942Z,101069.88
2022-12-01T02:06:38.350Z,101040.19
2022-12-01T02:09:41.132Z,101037.69
2022-12-01T02:12:58.323Z,101054.63
2022-12-01T02:16:14.429Z,101050.53
2022-12-01T02:19:31.708Z,101057.87
2022-12-01T02:22:53.999Z,101060.59
2022-12-01T02:26:27.466Z,101064.69
2022-12-01T02:29:51.794Z,101063.87
2022-12-01T02:33:11.854Z,101070.94
2022-12-01T02:36:32.590Z,101066.59
2022-12-01T02:39:48.709Z,101035.53
2022-12-01T02:43:14.294Z,101039.88
2022-12-01T02:46:26.280Z,101066.06
2022-12-01T02:49:43.843Z,101031.16
2022-12-01T02:52:46.342Z,101053.22
2022-12-01T02:55:54.799Z,101028.16
2022-12-01T02:58:57.567Z,101022.69
2022-12-01T03:02:09.450Z,101023.53
2022-12-01T03:05:37.671Z,101042.88
2022-12-01T03:08:59.139Z,101048.06
2022-12-01T03:12:04.234Z,101051.03
2022-12-01T03:15:12.494Z,101045.31
2022-12-01T03:18:35.990Z,101056.78
2022-12-01T03:21:41.480Z,101057.31
2022-12-01T03:24:48.399Z,101053.75
2022-12-01T03:28:20.327Z,101032.75
2022-12-01T03:31:24.896Z,101016.97
2022-12-01T03:34:36.372Z,101049.69
2022-12-01T03:38:14.667Z,101016.72
2022-12-01T03:41:24.549Z,101039.06
2022-12-01T03:44:32.166Z,101035.25
2022-12-01T03:47:37.544Z,101014.81
2022-12-01T03:50:55.790Z,101033.87
2022-12-01T03:54:06.534Z,101033.34
2022-12-01T03:57:13.412Z,101008.84
2022-12-01T04:00:17.156Z,101017.81
2022-12-01T04:03:23.074Z,101044.53
2022-12-01T04:06:25.382Z,101038.78
2022-12-01T04:09:30.228Z,101035.00
2022-12-01T04:12:33.202Z,101040.97
2022-12-01T04:15:35.736Z,101022.97
2022-12-01T04:18:38.021Z,101040.44
2022-12-01T04:21:40.684Z,101027.59
2022-12-01T04:24:42.929Z,101009.91
2022-12-01T04:27:45.643Z,101012.63
2022-12-01T04:30:47.855Z,101024.59
2022-12-01T04:33:50.433Z,101021.09
2022-12-01T04:36:52.856Z,101020.50
2022-12-01T04:39:55.446Z,101003.34
2022-12-01T04:42:57.667Z,101028.44
2022-12-01T04:46:00.245Z,101039.31
2022-12-01T04:49:02.630Z,101020.75
2022-12-01T04:52:05.409Z,101031.62
2022-12-01T04:55:08.515Z,101059.97
2022-12-01T04:58:11.131Z,101048.50
2022-12-01T05:01:15.773Z,101069.72
2022-12-01T05:04:18.344Z,101055.28
2022-12-01T05:07:20.682Z,101056.09
2022-12-01T05:10:23.229Z,101050.37
2022-12-01T05:13:25.798Z,101019.59
2022-12-01T05:16:32.312Z,101059.91
2022-12-01T05:19:53.196Z,101032.69
2022-12-01T05:23:07.110Z,101051.22
2022-12-01T05:26:10.401Z,101052.59
2022-12-01T05:29:13.582Z,101018.25
2022-12-01T05:32:15.859Z,101016.34
2022-12-01T05:35:18.441Z,101050.13
2022-12-01T05:38:21.060Z,101026.09
2022-12-01T05:41:23.660Z,101027.44
2022-12-01T05:44:25.905Z,101038.62
2022-12-01T05:47:28.566Z,101047.84
2022-12-01T05:50:31.634Z,101000.91
2022-12-01T05:53:34.486Z,101027.09
2022-12-01T05:56:36.714Z,101030.88
2022-12-01T05:59:39.282Z,101046.69
2022-12-01T06:02:42.211Z,101061.41
2022-12-01T06:05:44.890Z,101035.22
2022-12-01T06:08:47.184Z,101063.03
2022-12-01T06:11:52.553Z,101065.75
2022-12-01T06:14:55.155Z,101068.47
2022-12-01T06:18:00.737Z,101069.28
2022-12-01T06:21:03.595Z,101077.97
2022-12-01T06:24:06.517Z,101046.34
2022-12-01T06:27:08.827Z,101077.44
2022-12-01T06:30:11.637Z,101076.06
2022-12-01T06:33:13.965Z,101072.78
2022-12-01T06:36:16.570Z,101066.25
2022-12-01T06:39:19.054Z,101078.78
2022-12-01T06:42:21.587Z,101079.34
2022-12-01T06:45:23.862Z,101072.81
2022-12-01T06:48:26.488Z,101064.66
2022-12-01T06:51:30.493Z,101046.69
2022-12-01T06:54:33.592Z,101076.72
2022-12-01T06:57:36.015Z,101081.63
2022-12-01T07:00:38.874Z,101060.37
2022-12-01T07:03:41.157Z,101066.38
2022-12-01T07:06:46.535Z,101045.66
2022-12-01T07:09:48.947Z,101054.34
2022-12-01T07:12:51.674Z,101058.75
2022-12-01T07:15:53.995Z,101077.87
2022-12-01T07:18:56.554Z,101056.63
2022-12-01T07:21:58.823Z,101077.87
2022-12-01T07:25:01.373Z,101081.19
2022-12-01T07:28:03.669Z,101083.41
2022-12-01T07:31:08.864Z,101058.59
2022-12-01T07:34:13.060Z,101086.97
2022-12-01T07:37:15.608Z,101090.53
2022-12-01T07:40:18.082Z,101090.00
2022-12-01T07:43:20.697Z,101091.94
2022-12-01T07:46:26.251Z,101092.22
2022-12-01T07:49:28.919Z,101081.84
2022-12-01T07:52:31.159Z,101067.69
2022-12-01T07:55:36.290Z,101069.03
2022-12-01T07:58:38.651Z,101085.13
2022-12-01T08:01:44.523Z,101063.56
2022-12-01T08:04:47.426Z,101088.28
2022-12-01T08:07:49.800Z,101094.22
2022-12-01T08:10:53.205Z,101095.72
2022-12-01T08:13:55.890Z,101102.28
2022-12-01T08:16:58.947Z,101095.25
2022-12-01T08:20:01.558Z,101087.56
2022-12-01T08:23:04.318Z,101067.25
2022-12-01T08:26:12.508Z,101086.50
2022-12-01T08:29:19.901Z,101092.94
2022-12-01T08:32:22.842Z,101088.56
2022-12-01T08:35:25.858Z,101077.16
2022-12-01T08:38:28.128Z,101076.84
2022-12-01T08:41:31.820Z,101094.81
2022-12-01T08:44:34.125Z,101094.84
2022-12-01T08:47:36.882Z,101091.09
2022-12-01T08:50:39.489Z,101082.97
2022-12-01T08:53:45.761Z,101084.06
2022-12-01T08:56:49.550Z,101096.38
2022-12-01T08:59:52.219Z,101094.31
2022-12-01T09:02:57.341Z,101102.56
2022-12-01T09:06:06.743Z,101092.81
2022-12-01T09:09:10.861Z,101093.59
2022-12-01T09:12:13.688Z,101085.22
2022-12-01T09:15:16.168Z,101071.22
2022-12-01T09:18:18.791Z,101080.34
2022-12-01T09:21:24.718Z,101087.94
2022-12-01T09:24:27.721Z,101097.16
2022-12-01T09:27:29.999Z,101091.16
2022-12-01T09:30:35.125Z,101083.00
2022-12-01T09:33:38.470Z,101094.66
2022-12-01T09:36:41.537Z,101071.72
2022-12-01T09:39:43.840Z,101075.88
2022-12-01T09:42:47.739Z,101077.69
2022-12-01T09:46:07.654Z,101058.97
2022-12-01T09:49:19.300Z,101082.25
2022-12-01T09:52:24.330Z,101081.13
2022-12-01T09:55:30.329Z,101078.94
2022-12-01T09:58:33.377Z,101071.06
2022-12-01T10:01:38.645Z,101075.84
2022-12-01T10:04:46.799Z,101059.28
2022-12-01T10:07:56.430Z,101046.06
2022-12-01T10:11:08.408Z,101024.16
2022-12-01T10:14:20.447Z,101036.09
2022-12-01T10:18:04.913Z,101054.59
2022-12-01T10:21:10.119Z,101059.03
2022-12-01T10:24:31.116Z,101040.72
2022-12-01T10:27:52.492Z,101051.50
2022-12-01T10:31:04.566Z,101055.53
2022-12-01T10:34:23.123Z,101049.63
2022-12-01T10:37:28.824Z,101034.03
2022-12-01T10:40:35.246Z,101041.34
2022-12-01T10:43:40.466Z,101038.78
2022-12-01T10:46:52.517Z,101040.94
2022-12-01T10:49:56.324Z,101036.31
2022-12-01T10:52:58.757Z,101027.19
2022-12-01T10:56:04.266Z,101034.66
2022-12-01T10:59:44.248Z,101039.47
2022-12-01T11:02:47.925Z,101030.25
2022-12-01T11:05:54.506Z,101019.03
2022-12-01T11:09:05.435Z,101029.34
2022-12-01T11:12:16.637Z,101022.59
2022-12-01T11:15:22.726Z,101017.91
2022-12-01T11:18:27.906Z,101019.59
2022-12-01T11:21:31.928Z,101010.69
2022-12-01T11:25:00.652Z,101003.53
2022-12-01T11:28:04.672Z,100983.09
2022-12-01T11:31:11.076Z,100995.25
2022-12-01T11:34:24.676Z,100992.00
2022-12-01T11:37:50.493Z,100994.34
2022-12-01T11:41:03.163Z,100992.19
2022-12-01T11:44:43.063Z,100964.78
2022-12-01T11:48:06.247Z,100988.94
2022-12-01T11:51:24.362Z,100935.47
2022-12-01T11:54:27.262Z,100987.59
2022-12-01T11:57:34.885Z,100978.84
2022-12-01T12:00:51.120Z,100967.81
2022-12-01T12:04:25.304Z,100959.63
2022-12-01T12:07:55.506Z,100963.66
2022-12-01T12:11:26.427Z,100972.97
2022-12-01T12:14:50.835Z,100972.00
2022-12-01T12:17:59.814Z,100970.25
2022-12-01T12:21:38.930Z,100982.84
2022-12-01T12:25:24.220Z,100983.50
2022-12-01T12:29:07.155Z,100970.25
2022-12-01T12:32:34.972Z,100965.16
2022-12-01T12:36:05.372Z,100964.94
2022-12-01T12:39:27.401Z,100960.91
2022-12-01T12:42:59.741Z,100968.63
2022-12-01T12:46:08.273Z,100975.53
2022-12-01T12:49:27.049Z,100951.06
2022-12-01T12:52:42.620Z,100964.50
2022-12-01T12:55:54.958Z,100961.00
2022-12-01T12:59:01.914Z,100939.22
2022-12-01T13:02:14.976Z,100975.94
2022-12-01T13:05:43.776Z,100942.63
2022-12-01T13:08:53.432Z,100950.28
2022-12-01T13:12:15.892Z,100959.94
2022-12-01T13:15:21.516Z,100862.66
2022-12-01T13:18:46.946Z,100940.09
2022-12-01T13:21:52.223Z,100949.50
2022-12-01T13:24:55.154Z,100952.28
2022-12-01T13:28:10.277Z,100957.59
2022-12-01T13:31:15.993Z,100961.75
2022-12-01T13:34:29.215Z,100950.31
2022-12-01T13:37:35.678Z,100955.72
2022-12-01T13:40:39.235Z,100927.91
2022-12-01T13:44:03.883Z,100900.78
2022-12-01T13:47:33.077Z,100959.78
2022-12-01T13:50:46.044Z,100962.06
2022-12-01T13:54:05.629Z,100960.06
2022-12-01T13:57:14.003Z,100971.16
2022-12-01T14:00:41.460Z,100934.00
2022-12-01T14:04:26.330Z,100943.69
2022-12-01T14:07:39.652Z,100932.56
2022-12-01T14:10:57.281Z,100955.44
2022-12-01T14:14:12.258Z,100853.03
2022-12-01T14:17:41.804Z,100950.41
2022-12-01T14:20:48.485Z,100954.06
2022-12-01T14:24:06.269Z,100917.66
2022-12-01T14:27:12.170Z,100948.78
2022-12-01T14:30:37.586Z,100881.78
2022-12-01T14:33:40.188Z,100955.69
2022-12-01T14:37:11.661Z,100955.91
2022-12-01T14:40:19.495Z,100919.50
2022-12-01T14:43:40.594Z,100866.50
2022-12-01T14:46:58.014Z,100831.41
2022-12-01T14:50:15.337Z,100916.78
2022-12-01T14:53:25.897Z,100938.34
2022-12-01T14:56:30.003Z,100953.25
2022-12-01T14:59:32.843Z,100946.59
2022-12-01T15:02:43.554Z,100937.63
2022-12-01T15:05:46.253Z,100946.75
2022-12-01T15:09:34.598Z,100957.28
2022-12-01T15:12:37.861Z,100932.66
2022-12-01T15:15:53.565Z,100927.53
2022-12-01T15:18:58.405Z,100912.94
2022-12-01T15:22:06.042Z,100901.66
2022-12-01T15:25:14.900Z,100951.69
2022-12-01T15:28:18.597Z,100948.56
2022-12-01T15:31:21.319Z,100954.63
2022-12-01T15:34:48.659Z,100947.06
2022-12-01T15:37:52.583Z,100946.88
2022-12-01T15:41:28.057Z,100923.81
2022-12-01T15:44:42.393Z,100949.44
2022-12-01T15:47:47.252Z,100949.22
2022-12-01T15:51:01.973Z,100950.03
2022-12-01T15:54:04.657Z,100927.81
2022-12-01T15:57:09.079Z,100945.50
2022-12-01T16:00:20.726Z,100924.31
2022-12-01T16:03:23.579Z,100956.22
2022-12-01T16:06:30.126Z,100924.16
2022-12-01T16:09:41.126Z,100935.16
2022-12-01T16:12:43.464Z,100953.31
2022-12-01T16:15:45.980Z,100954.72
2022-12-01T16:18:57.887Z,100960.78
2022-12-01T16:22:13.595Z,100935.00
2022-12-01T16:25:28.013Z,100967.41
2022-12-01T16:28:36.338Z,100955.13
2022-12-01T16:31:58.572Z,100952.41
2022-12-01T16:35:04.232Z,100951.06
2022-12-01T16:38:20.602Z,100958.44
2022-12-01T16:41:38.361Z,100933.19
2022-12-01T16:44:42.071Z,100942.44
2022-12-01T16:47:46.896Z,100953.62
2022-12-01T16:50:50.228Z,100955.25
2022-12-01T16:53:52.883Z,100927.81
2022-12-01T16:56:55.136Z,100946.28
2022-12-01T16:59:57.832Z,100938.44
2022-12-01T17:03:00.823Z,100934.34
2022-12-01T17:06:04.701Z,100950.75
2022-12-01T17:09:07.100Z,100928.47
2022-12-01T17:12:09.875Z,100963.31
2022-12-01T17:15:12.304Z,100941.63
2022-12-01T17:18:16.422Z,100957.31
2022-12-01T17:21:19.115Z,100963.94
2022-12-01T17:24:21.801Z,100934.56
2022-12-01T17:27:25.245Z,100967.22
2022-12-01T17:30:27.921Z,100935.06
2022-12-01T17:33:30.391Z,100952.59
2022-12-01T17:36:32.951Z,100941.72
2022-12-01T17:39:35.318Z,100961.28
2022-12-01T17:42:37.946Z,100937.94
2022-12-01T17:45:42.085Z,100977.97
2022-12-01T17:48:46.402Z,100963.59
2022-12-01T17:51:48.738Z,100971.22
2022-12-01T17:54:51.710Z,100971.81
2022-12-01T17:57:54.182Z,100974.59
2022-12-01T18:00:56.719Z,100957.44
2022-12-01T18:03:59.331Z,100919.72
2022-12-01T18:07:01.666Z,100955.31
2022-12-01T18:10:04.617Z,100981.75
2022-12-01T18:13:07.208Z,100982.91
2022-12-01T18:16:20.962Z,100953.56
2022-12-01T18:19:23.388Z,100952.50
2022-12-01T18:22:25.958Z,100973.69
2022-12-01T18:25:28.233Z,100951.97
2022-12-01T18:28:31.091Z,100967.50
2022-12-01T18:31:34.603Z,100966.09
2022-12-01T18:34:37.228Z,100976.22
2022-12-01T18:37:40.398Z,100977.84
2022-12-01T18:40:42.976Z,100952.56
2022-12-01T18:43:45.740Z,100978.72
2022-12-01T18:46:48.349Z,100980.38
2022-12-01T18:49:50.631Z,100981.50
2022-12-01T18:52:53.195Z,100979.56
2022-12-01T18:55:55.453Z,100976.56
2022-12-01T18:59:01.553Z,100946.91
2022-12-01T19:02:04.382Z,100984.75
2022-12-01T19:05:07.297Z,100977.13
2022-12-01T19:08:09.755Z,100977.62
2022-12-01T19:11:12.686Z,100964.12
2022-12-01T19:14:18.490Z,100982.00
2022-12-01T19:17:21.567Z,100979.56
2022-12-01T19:20:24.056Z,100983.72
2022-12-01T19:23:26.785Z,100990.25
2022-12-01T19:26:29.174Z,100968.22
2022-12-01T19:29:31.731Z,101003.34
2022-12-01T19:32:34.452Z,100973.97
2022-12-01T19:35:37.040Z,100991.69
2022-12-01T19:38:39.976Z,100969.06
2022-12-01T19:41:42.645Z,100961.44
2022-12-01T19:44:45.252Z,100996.59
2022-12-01T19:47:48.934Z,101000.19
2022-12-01T19:50:51.109Z,100988.72
2022-12-01T19:53:54.566Z,100997.97
2022-12-01T19:56:57.007Z,100989.25
2022-12-01T20:00:00.004Z,100967.50
2022-12-01T20:03:02.386Z,100996.91
2022-12-01T20:06:08.350Z,101004.31
2022-12-01T20:09:10.939Z,100994.50
2022-12-01T20:12:14.625Z,101004.03
2022-12-01T20:15:17.227Z,100964.06
2022-12-01T20:18:19.941Z,100975.75
2022-12-01T20:21:25.565Z,101002.97
2022-12-01T20:24:28.130Z,101008.97
2022-12-01T20:27:30.543Z,100972.00
2022-12-01T20:30:33.085Z,100971.44
2022-12-01T20:33:35.458Z,101007.66
2022-12-01T20:36:39.137Z,101011.78
2022-12-01T20:39:42.870Z,100983.78
2022-12-01T20:42:45.412Z,101010.72
2022-12-01T20:45:47.772Z,100994.97
2022-12-01T20:48:50.443Z,100991.75
2022-12-01T20:51:52.693Z,100989.84
2022-12-01T20:54:55.448Z,101006.47
2022-12-01T20:57:57.665Z,101033.22
2022-12-01T21:01:01.182Z,100989.09
2022-12-01T21:04:03.679Z,101026.69
2022-12-01T21:07:06.263Z,101031.59
2022-12-01T21:10:08.807Z,101002.78
2022-12-01T21:13:44.646Z,101024.81
2022-12-01T21:16:49.122Z,101005.47
2022-12-01T21:20:18.074Z,101005.47
2022-12-01T21:23:21.327Z,101040.37
2022-12-01T21:26:23.871Z,101006.03
2022-12-01T21:29:40.179Z,101001.41
2022-12-01T21:32:44.499Z,101013.63
2022-12-01T21:35:50.073Z,101007.63
2022-12-01T21:38:57.384Z,101012.56
2022-12-01T21:42:06.995Z,101009.84
2022-12-01T21:45:31.155Z,101014.78
2022-12-01T21:48:36.369Z,101042.56
2022-12-01T21:51:38.927Z,101005.75
2022-12-01T21:54:41.180Z,101036.25
2022-12-01T21:57:48.667Z,101041.72
2022-12-01T22:00:53.808Z,101009.84
2022-12-01T22:04:02.026Z,101016.97
2022-12-01T22:07:05.317Z,101025.12
2022-12-01T22:10:46.824Z,101037.94
2022-12-01T22:13:49.076Z,101037.13
2022-12-01T22:16:58.175Z,101047.19
2022-12-01T22:20:02.411Z,101041.75
2022-12-01T22:23:13.031Z,101046.94
2022-12-01T22:26:20.552Z,101040.66
2022-12-01T22:29:31.670Z,101037.66
2022-12-01T22:32:38.710Z,101020.22
2022-12-01T22:35:46.306Z,100989.75
2022-12-01T22:38:49.880Z,101034.41
2022-12-01T22:41:58.438Z,101026.50
2022-12-01T22:45:26.378Z,101025.69
2022-12-01T22:48:40.492Z,101024.84
2022-12-01T22:51:49.638Z,101028.41
2022-12-01T22:54:52.578Z,101020.78
2022-12-01T22:57:55.256Z,100995.19
2022-12-01T23:01:03.842Z,101017.50
2022-12-01T23:04:20.520Z,100993.81
2022-12-01T23:07:32.016Z,100994.06
2022-12-01T23:10:35.245Z,100998.72
2022-12-01T23:13:37.838Z,101020.25
2022-12-01T23:16:40.563Z,101023.53
2022-12-01T23:19:43.289Z,101022.41
2022-12-01T23:22:46.365Z,100992.72
2022-12-01T23:25:50.527Z,101015.59
2022-12-01T23:28:52.810Z,100999.53
2022-12-01T23:31:55.408Z,101029.50
2022-12-01T23:35:00.364Z,101003.94
2022-12-01T23:38:03.240Z,101028.41
2022-12-01T23:41:10.554Z,101030.59
2022-12-01T23:44:21.310Z,101004.19
2022-12-01T23:47:26.775Z,101030.06
2022-12-01T23:50:30.439Z,101025.16
2022-12-01T23:53:33.602Z,101010.47
2022-12-01T23:56:39.272Z,101028.41
2022-12-01T23:59:42.183Z,101029.78
